Shirley, IN (47384)

6:51 AM EST on December 11, 2016 (GMT -0500)
True Communications-Jeffs Pizza | | Change Station
Active Advisory: Special Statement

Elev 925 ft 39.80 °N, 85.52 °W | Updated 9 seconds ago

Overcast
Overcast
29.0 °F
Feels Like 23 °F
N
6.0
Wind Variable Wind from SSE
Gusts 13.0 mph

Today
High -- | Low -- °F
--% Chance of Precip.
Yesterday
High -- | Low -- °F
Precip. -- in
Pressure 30.21 in
Visibility 10.0 miles
Clouds Overcast 4200 ft
Windchill 23 °F
Dew Point 22 °F
Humidity 73%
Rainfall 0.00 in
Snow Depth Not available.
7:54 AM 5:17 PM
Waxing Gibbous, 91% visible
METAR KMQJ 111139Z AUTO 16008KT 10SM OVC042 M02/M07 A3021 RMK AO1
Pressure 30.21 in
Visibility 10.0 miles
Clouds Overcast 4200 ft
Windchill 23 °F
Dew Point 22 °F
Humidity 73%
Rainfall 0.00 in
Snow Depth Not available.
7:54 AM 5:17 PM
Waxing Gibbous, 91% visible
METAR KMQJ 111139Z AUTO 16008KT 10SM OVC042 M02/M07 A3021 RMK AO1

10-Day Weather Forecast

Almanac

Astronomy

Dec. 11, 2016 Rise Set
Actual Time
Civil Twilight
Nautical Twilight
Astronomical Twilight
Moon
Length of Visible Light
Length of Day
Tomorrow will be .
, % of the Moon is Illuminated

Today's Extremes

State Highs State Lows

Community

WunderPhotos

Upload Photos

1,956,710 photos uploaded!

WunderBlog® & News

Nearby

Air Quality

  Air Quality AQ Index Pollutant
Not available.

Snow Depth

Station Depth Elevation

Earthquake Activity

City Distance Mag. Time & Date
Minimum magnitude displayed is 2.5.

Coastal Water Temperatures

Place Temperature

Stations

Nearby Weather Stations

Station Location Temp. Windchill Dew Point Humidity Wind Precip. Elev Updated Type
                   

Watches & Warnings

Special Statement
Issued: 3:23 AM EST Dec. 11, 2016 – National Weather Service

... Mixed precipitation expected today...

A warm front will lift across central Indiana today... bringing
precipitation to central Indiana. The precipitation is expected to
begin as snow... but will mix with freezing rain and sleet as the
day progresses. Only slight... minimal ice accumulations are
expected... however this still may result in some slippery
surfaces.

Eventually... all of the precipitation is expected
to become rain by tonight... as temperatures climb into the middle
30s.

Exercise caution should you encounter ice while outdoors today.


Puma

323 am EST sun Dec 11 2016

... Mixed precipitation expected today...

A warm front will lift across central Indiana today... bringing
precipitation to central Indiana. The precipitation is expected to
begin as snow... but will mix with freezing rain and sleet as the
day progresses. Only slight... minimal ice accumulations are
expected... however this still may result in some slippery
surfaces.

Eventually... all of the precipitation is expected
to become rain by tonight... as temperatures climb into the middle
30s.

Exercise caution should you encounter ice while outdoors today.


Puma